createdAt,value
2018-05-10T00:00:07.716Z,25.47
2018-05-10T00:02:36.064Z,25.40
2018-05-10T00:05:03.620Z,26.60
2018-05-10T00:07:31.192Z,27.27
2018-05-10T00:09:58.768Z,26.13
2018-05-10T00:12:27.091Z,24.77
2018-05-10T00:14:54.656Z,25.37
2018-05-10T00:17:22.212Z,26.03
2018-05-10T00:19:49.804Z,25.87
2018-05-10T00:22:17.352Z,26.87
2018-05-10T00:24:44.941Z,25.50
2018-05-10T00:27:12.517Z,29.10
2018-05-10T00:29:40.884Z,26.27
2018-05-10T00:32:09.216Z,26.30
2018-05-10T00:34:36.784Z,25.53
2018-05-10T00:37:04.371Z,24.40
2018-05-10T00:39:31.933Z,24.07
2018-05-10T00:41:59.509Z,22.23
2018-05-10T00:44:27.818Z,22.03
2018-05-10T00:46:55.391Z,21.67
2018-05-10T00:49:22.942Z,21.37
2018-05-10T00:51:50.584Z,20.87
2018-05-10T00:54:29.964Z,19.37
2018-05-10T00:56:57.527Z,18.37
2018-05-10T00:59:25.115Z,21.33
2018-05-10T01:01:52.822Z,19.10
2018-05-10T01:04:20.371Z,19.23
2018-05-10T01:06:47.968Z,19.20
2018-05-10T01:09:15.552Z,18.27
2018-05-10T01:11:43.100Z,18.20
2018-05-10T01:14:10.856Z,21.03
2018-05-10T01:16:38.408Z,23.03
2018-05-10T01:19:05.989Z,23.13
2018-05-10T01:21:33.530Z,23.13
2018-05-10T01:24:01.095Z,25.27
2018-05-10T01:26:28.675Z,27.60
2018-05-10T01:28:56.259Z,30.27
2018-05-10T01:31:24.573Z,29.10
2018-05-10T01:33:52.152Z,31.47
2018-05-10T01:36:19.751Z,31.20
2018-05-10T01:38:48.067Z,32.50
2018-05-10T01:41:15.620Z,31.30
2018-05-10T01:43:43.193Z,31.50
2018-05-10T01:46:10.812Z,33.33
2018-05-10T01:48:39.156Z,33.60
2018-05-10T01:51:06.783Z,34.50
2018-05-10T01:53:34.346Z,36.17
2018-05-10T01:56:01.989Z,32.67
2018-05-10T01:58:29.573Z,33.87
2018-05-10T02:00:57.128Z,36.00
2018-05-10T02:03:24.721Z,33.47
2018-05-10T02:05:52.288Z,33.63
2018-05-10T02:08:19.865Z,35.53
2018-05-10T02:10:47.423Z,36.33
2018-05-10T02:13:14.997Z,34.77
2018-05-10T02:15:43.356Z,32.90
2018-05-10T02:18:10.967Z,32.93
2018-05-10T02:20:38.562Z,34.20
2018-05-10T02:23:06.175Z,35.63
2018-05-10T02:25:33.749Z,33.77
2018-05-10T02:28:01.352Z,35.93
2018-05-10T02:30:29.685Z,34.43
2018-05-10T02:32:57.235Z,32.33
2018-05-10T02:35:24.798Z,31.23
2018-05-10T02:37:52.344Z,29.70
2018-05-10T02:40:19.905Z,29.20
2018-05-10T02:42:47.469Z,30.27
2018-05-10T02:45:15.105Z,29.57
2018-05-10T02:47:42.656Z,26.23
2018-05-10T02:50:10.229Z,27.27
2018-05-10T02:52:38.588Z,25.63
2018-05-10T02:55:06.163Z,26.83
2018-05-10T02:57:33.715Z,26.17
2018-05-10T03:00:01.334Z,24.30
2018-05-10T03:02:28.908Z,24.97
2018-05-10T03:04:56.475Z,24.70
2018-05-10T03:07:24.059Z,25.33
2018-05-10T03:09:51.747Z,24.90
2018-05-10T03:12:20.092Z,24.93
2018-05-10T03:14:47.645Z,24.03
2018-05-10T03:17:15.208Z,25.47
2018-05-10T03:19:42.773Z,25.07
2018-05-10T03:22:10.338Z,25.20
2018-05-10T03:24:37.887Z,24.23
2018-05-10T03:27:05.485Z,24.37
2018-05-10T03:29:33.792Z,25.00
2018-05-10T03:32:01.409Z,24.40
2018-05-10T03:34:28.984Z,27.60
2018-05-10T03:36:57.298Z,24.90
2018-05-10T03:39:24.881Z,25.67
2018-05-10T03:41:52.449Z,26.23
2018-05-10T03:44:20.009Z,26.73
2018-05-10T03:46:47.584Z,26.40
2018-05-10T03:49:15.219Z,25.80
2018-05-10T03:51:42.835Z,24.20
2018-05-10T03:54:11.179Z,27.43
2018-05-10T03:56:38.732Z,27.03
2018-05-10T03:59:06.299Z,26.00
2018-05-10T04:01:37.832Z,28.33
2018-05-10T04:04:20.083Z,32.37
2018-05-10T04:07:00.200Z,32.10
2018-05-10T04:09:39.554Z,31.40
2018-05-10T04:12:07.132Z,29.50
2018-05-10T04:14:35.472Z,30.10
2018-05-10T04:17:03.068Z,31.10
2018-05-10T04:19:31.520Z,31.30
2018-05-10T04:21:59.105Z,29.60
2018-05-10T04:24:27.423Z,31.87
2018-05-10T04:26:54.996Z,29.80
2018-05-10T04:29:22.536Z,28.63
2018-05-10T04:31:50.124Z,31.00
2018-05-10T04:34:17.689Z,30.17
2018-05-10T04:36:45.326Z,30.00
2018-05-10T04:39:12.880Z,26.20
2018-05-10T04:41:40.435Z,29.17
2018-05-10T04:44:08.013Z,29.27
2018-05-10T04:46:35.567Z,27.23
2018-05-10T04:49:03.136Z,27.40
2018-05-10T04:51:30.678Z,28.93
2018-05-10T04:53:58.269Z,26.53
2018-05-10T04:56:25.885Z,25.77
2018-05-10T04:58:53.647Z,24.73
2018-05-10T05:01:21.195Z,24.73
2018-05-10T05:03:49.532Z,23.07
2018-05-10T05:06:17.097Z,23.00
2018-05-10T05:08:44.723Z,21.03
2018-05-10T05:11:12.384Z,20.50
2018-05-10T05:13:39.944Z,20.87
2018-05-10T05:16:07.517Z,19.73
2018-05-10T05:18:35.071Z,19.00
2018-05-10T05:21:02.625Z,17.57
2018-05-10T05:23:30.205Z,18.50
2018-05-10T05:25:57.768Z,16.87
2018-05-10T05:28:25.335Z,16.70
2018-05-10T05:30:52.923Z,16.00
2018-05-10T05:33:21.273Z,15.90
2018-05-10T05:35:48.881Z,15.40
2018-05-10T05:38:16.556Z,15.60
2018-05-10T05:40:44.128Z,14.20
2018-05-10T05:43:11.757Z,15.20
2018-05-10T05:45:39.305Z,14.90
2018-05-10T05:48:06.894Z,14.50
2018-05-10T05:50:34.460Z,16.83
2018-05-10T05:53:02.057Z,16.63
2018-05-10T05:55:29.631Z,17.70
2018-05-10T05:57:57.188Z,19.90
2018-05-10T06:00:24.826Z,19.10
2018-05-10T06:02:52.480Z,19.13
2018-05-10T06:05:20.044Z,19.17
2018-05-10T06:07:47.588Z,20.87
2018-05-10T06:10:15.254Z,23.27
2018-05-10T06:12:42.812Z,22.03
2018-05-10T06:15:10.373Z,22.47
2018-05-10T06:17:37.940Z,23.00
2018-05-10T06:20:05.487Z,21.60
2018-05-10T06:22:33.065Z,21.93
2018-05-10T06:25:00.722Z,25.43
2018-05-10T06:27:29.028Z,29.90
2018-05-10T06:29:56.599Z,27.10
2018-05-10T06:32:24.176Z,27.23
2018-05-10T06:34:52.498Z,25.87
2018-05-10T06:37:20.093Z,28.17
2018-05-10T06:39:47.666Z,26.90
2018-05-10T06:42:15.248Z,27.00
2018-05-10T06:44:43.589Z,26.53
2018-05-10T06:47:11.145Z,27.63
2018-05-10T06:49:38.725Z,27.33
2018-05-10T06:52:06.360Z,26.07
2018-05-10T06:54:34.090Z,26.10
2018-05-10T06:57:01.644Z,23.83
2018-05-10T06:59:29.223Z,25.37
2018-05-10T07:01:56.791Z,25.33
2018-05-10T07:04:24.373Z,24.63
2018-05-10T07:06:51.919Z,26.47
2018-05-10T07:09:19.577Z,24.47
2018-05-10T07:11:47.124Z,22.00
2018-05-10T07:14:14.705Z,25.97
2018-05-10T07:16:42.264Z,24.27
2018-05-10T07:19:09.844Z,23.47
2018-05-10T07:21:38.167Z,22.53
2018-05-10T07:24:05.919Z,22.57
2018-05-10T07:26:33.503Z,22.30
2018-05-10T07:29:01.185Z,20.23
2018-05-10T07:31:28.769Z,16.73
2018-05-10T07:33:56.346Z,17.77
2018-05-10T07:36:23.903Z,17.63
2018-05-10T07:38:51.535Z,17.13
2018-05-10T07:41:19.139Z,17.13
2018-05-10T07:43:47.548Z,17.10
2018-05-10T07:46:15.112Z,18.67
2018-05-10T07:48:42.724Z,17.30
2018-05-10T07:51:10.332Z,17.07
2018-05-10T07:53:37.871Z,18.77
2018-05-10T07:56:05.456Z,18.20
2018-05-10T07:58:33.017Z,17.37
2018-05-10T08:01:00.597Z,19.10
2018-05-10T08:03:28.160Z,19.03
2018-05-10T08:05:55.823Z,20.47
2018-05-10T08:08:23.388Z,20.53
2018-05-10T08:10:50.952Z,20.50
2018-05-10T08:13:21.340Z,21.90
2018-05-10T08:15:48.900Z,21.43
2018-05-10T08:18:16.472Z,21.57
2018-05-10T08:20:44.109Z,20.57
2018-05-10T08:23:11.720Z,20.43
2018-05-10T08:25:39.260Z,22.00
2018-05-10T08:28:06.827Z,20.97
2018-05-10T08:30:34.388Z,20.43
2018-05-10T08:33:01.984Z,19.80
2018-05-10T08:35:30.313Z,19.00
2018-05-10T08:37:57.901Z,19.07
2018-05-10T08:40:25.684Z,17.23
2018-05-10T08:42:53.261Z,17.07
2018-05-10T08:45:20.972Z,17.17
2018-05-10T08:47:49.349Z,15.40
2018-05-10T08:52:50.949Z,13.90
2018-05-10T08:55:18.616Z,13.70
2018-05-10T08:57:46.176Z,13.80
2018-05-10T09:00:14.124Z,179.53
2018-05-10T09:02:41.697Z,13.33
2018-05-10T09:05:09.268Z,11.53
2018-05-10T09:07:36.918Z,11.87
2018-05-10T09:10:04.494Z,11.30
2018-05-10T09:12:32.329Z,9.50
2018-05-10T09:14:59.911Z,7.20
2018-05-10T09:17:27.451Z,5.97
2018-05-10T09:19:55.217Z,4.40
2018-05-10T09:22:22.784Z,4.40
2018-05-10T09:24:50.373Z,4.10
2018-05-10T09:27:18.699Z,3.83
2018-05-10T09:29:46.311Z,3.20
2018-05-10T09:32:14.848Z,3.40
2018-05-10T09:34:42.391Z,3.57
2018-05-10T09:37:09.973Z,3.43
2018-05-10T09:39:37.549Z,3.83
2018-05-10T09:42:05.239Z,3.90
2018-05-10T09:44:33.551Z,3.30
2018-05-10T09:47:01.131Z,3.50
2018-05-10T09:49:28.788Z,3.40
2018-05-10T09:51:56.954Z,3.00
2018-05-10T09:54:24.502Z,2.40
2018-05-10T09:56:52.076Z,2.60
2018-05-10T09:59:19.611Z,2.50
2018-05-10T10:01:47.224Z,2.57
2018-05-10T10:04:14.844Z,2.60
2018-05-10T10:06:42.406Z,3.10
2018-05-10T10:09:09.968Z,3.00
2018-05-10T10:11:37.740Z,2.93
2018-05-10T10:14:05.249Z,3.20
2018-05-10T10:16:32.816Z,2.67
2018-05-10T10:19:01.207Z,2.47
2018-05-10T10:21:29.532Z,2.70
2018-05-10T10:23:57.096Z,2.60
2018-05-10T10:26:24.703Z,2.20
2018-05-10T10:28:53.024Z,2.17
2018-05-10T10:31:20.597Z,2.70
2018-05-10T10:33:48.170Z,2.57
2018-05-10T10:36:15.712Z,2.93
2018-05-10T10:38:43.272Z,2.97
2018-05-10T10:41:10.984Z,2.90
2018-05-10T10:43:39.320Z,2.97
2018-05-10T10:46:06.867Z,3.23
2018-05-10T10:48:34.561Z,2.87
2018-05-10T10:51:02.140Z,2.90
2018-05-10T10:53:30.656Z,3.10
2018-05-10T10:55:58.284Z,3.40
2018-05-10T10:58:26.596Z,3.27
2018-05-10T11:00:54.341Z,3.93
2018-05-10T11:03:21.890Z,4.27
2018-05-10T11:05:50.219Z,4.87
2018-05-10T11:08:17.797Z,4.67
2018-05-10T11:10:45.372Z,4.97
2018-05-10T11:13:12.948Z,5.70
2018-05-10T11:15:41.291Z,5.80
2018-05-10T11:18:08.845Z,7.20
2018-05-10T11:20:36.703Z,8.07
2018-05-10T11:23:04.261Z,7.80
2018-05-10T11:25:31.937Z,7.90
2018-05-10T11:28:00.535Z,7.27
2018-05-10T11:30:28.174Z,8.07
2018-05-10T11:32:55.970Z,8.80
2018-05-10T11:35:24.340Z,8.03
2018-05-10T11:37:51.888Z,7.97
2018-05-10T11:40:19.717Z,8.03
2018-05-10T11:42:47.911Z,8.57
2018-05-10T11:45:15.478Z,10.30
2018-05-10T11:47:43.066Z,9.30
2018-05-10T11:50:10.623Z,10.23
2018-05-10T11:52:38.195Z,26.87
2018-05-10T11:55:06.772Z,11.63
2018-05-10T11:57:35.298Z,12.83
2018-05-10T12:00:05.426Z,10.90
2018-05-10T12:02:33.093Z,12.27
2018-05-10T12:05:00.745Z,11.43
2018-05-10T12:07:29.444Z,12.00
2018-05-10T12:09:57.020Z,13.20
2018-05-10T12:12:24.802Z,15.60
2018-05-10T12:14:52.427Z,15.73
2018-05-10T12:17:20.223Z,19.40
2018-05-10T12:19:48.659Z,17.17
2018-05-10T12:22:16.403Z,15.63
2018-05-10T12:24:44.794Z,15.50
2018-05-10T12:27:12.359Z,15.97
2018-05-10T12:29:39.923Z,13.77
2018-05-10T12:32:07.695Z,15.60
2018-05-10T12:34:35.307Z,14.10
2018-05-10T12:37:02.875Z,13.73
2018-05-10T12:39:31.220Z,15.33
2018-05-10T12:41:58.772Z,16.77
2018-05-10T12:44:26.364Z,16.10
2018-05-10T12:46:53.925Z,15.93
2018-05-10T12:49:22.268Z,15.40
2018-05-10T12:51:49.821Z,17.70
2018-05-10T12:54:17.541Z,17.80
2018-05-10T12:56:45.880Z,15.77
2018-05-10T12:59:13.494Z,14.60
2018-05-10T13:01:41.803Z,15.80
2018-05-10T13:04:09.397Z,15.53
2018-05-10T13:06:36.961Z,16.43
2018-05-10T13:09:04.510Z,15.17
2018-05-10T13:11:32.177Z,13.83
2018-05-10T13:13:59.806Z,15.87
2018-05-10T13:16:27.372Z,14.20
2018-05-10T13:18:54.960Z,21.77
2018-05-10T13:21:22.521Z,14.80
2018-05-10T13:23:50.128Z,14.20
2018-05-10T13:26:17.773Z,16.20
2018-05-10T13:28:46.089Z,14.67
2018-05-10T13:31:13.693Z,16.00
2018-05-10T13:33:41.248Z,15.60
2018-05-10T13:36:08.820Z,16.27
2018-05-10T13:38:37.163Z,13.77
2018-05-10T13:41:04.728Z,16.27
2018-05-10T13:43:32.292Z,15.10
2018-05-10T13:45:59.953Z,14.17
2018-05-10T13:48:27.507Z,16.37
2018-05-10T13:50:55.100Z,15.80
2018-05-10T13:53:23.441Z,15.30
2018-05-10T13:55:51.021Z,13.80
2018-05-10T13:58:18.625Z,15.97
2018-05-10T14:00:46.208Z,14.90
2018-05-10T14:03:13.764Z,15.87
2018-05-10T14:05:41.367Z,14.30
2018-05-10T14:08:08.931Z,15.87
2018-05-10T14:10:36.522Z,13.67
2018-05-10T14:13:04.111Z,14.47
2018-05-10T14:15:31.685Z,14.10
2018-05-10T14:17:59.244Z,14.93
2018-05-10T14:20:26.820Z,15.23
2018-05-10T14:22:54.400Z,13.60
2018-05-10T14:25:22.843Z,14.80
2018-05-10T14:27:50.332Z,15.23
2018-05-10T14:30:18.452Z,15.83
2018-05-10T14:32:46.429Z,13.73
2018-05-10T14:35:13.990Z,14.77
2018-05-10T14:37:41.584Z,16.27
2018-05-10T14:40:09.207Z,13.40
2018-05-10T14:42:36.784Z,15.43
2018-05-10T14:45:04.347Z,13.23
2018-05-10T14:47:31.939Z,15.27
2018-05-10T14:49:59.495Z,15.07
2018-05-10T14:52:27.837Z,14.07
2018-05-10T14:54:55.420Z,14.67
2018-05-10T14:57:23.120Z,13.40
2018-05-10T14:59:50.731Z,13.40
2018-05-10T15:02:18.272Z,14.07
2018-05-10T15:04:45.840Z,14.13
2018-05-10T15:07:13.404Z,13.30
2018-05-10T15:09:41.012Z,14.73
2018-05-10T15:12:09.353Z,13.90
2018-05-10T15:14:36.923Z,15.93
2018-05-10T15:17:04.501Z,15.90
2018-05-10T15:19:33.597Z,12.80
2018-05-10T15:22:01.946Z,14.13
2018-05-10T15:24:29.529Z,14.23
2018-05-10T15:26:57.095Z,13.47
2018-05-10T15:29:24.642Z,12.33
2018-05-10T15:31:52.224Z,13.27
2018-05-10T15:34:20.558Z,10.77
2018-05-10T15:36:48.119Z,12.03
2018-05-10T15:39:15.796Z,11.37
2018-05-10T15:41:43.316Z,10.47
2018-05-10T15:44:10.886Z,11.07
2018-05-10T15:46:38.554Z,10.87
2018-05-10T15:49:06.124Z,10.27
2018-05-10T15:51:33.693Z,9.23
2018-05-10T15:54:01.263Z,9.03
2018-05-10T15:56:28.816Z,9.77
2018-05-10T15:58:56.519Z,8.83
2018-05-10T16:01:24.849Z,8.20
2018-05-10T16:03:52.435Z,9.47
2018-05-10T16:06:20.004Z,8.50
2018-05-10T16:08:48.349Z,9.27
2018-05-10T16:11:15.914Z,9.33
2018-05-10T16:13:43.493Z,8.23
2018-05-10T16:16:11.055Z,8.17
2018-05-10T16:18:38.614Z,7.37
2018-05-10T16:21:06.172Z,7.40
2018-05-10T16:23:33.740Z,5.90
2018-05-10T16:26:02.091Z,5.90
2018-05-10T16:28:29.664Z,4.93
2018-05-10T16:30:57.199Z,4.70
2018-05-10T16:33:24.813Z,5.33
2018-05-10T16:35:53.128Z,5.20
2018-05-10T16:38:20.720Z,5.10
2018-05-10T16:40:48.312Z,5.50
2018-05-10T16:43:15.917Z,6.27
2018-05-10T16:45:43.559Z,6.13
2018-05-10T16:48:11.221Z,5.30
2018-05-10T16:50:38.881Z,5.60
2018-05-10T16:53:06.452Z,4.80
2018-05-10T16:55:34.036Z,4.80
2018-05-10T16:58:01.616Z,4.60
2018-05-10T17:00:29.180Z,4.60
2018-05-10T17:02:56.807Z,4.50
2018-05-10T17:05:24.408Z,4.50
2018-05-10T17:07:51.972Z,4.63
2018-05-10T17:10:20.321Z,5.00
2018-05-10T17:12:47.887Z,7.03
2018-05-10T17:15:15.569Z,6.00
2018-05-10T17:17:43.121Z,5.97
2018-05-10T17:20:10.695Z,4.80
2018-05-10T17:22:39.104Z,5.17
2018-05-10T17:25:06.664Z,5.00
2018-05-10T17:27:34.228Z,4.30
2018-05-10T17:30:01.800Z,4.53
2018-05-10T17:32:29.395Z,4.23
2018-05-10T17:34:57.691Z,4.67
2018-05-10T17:37:26.138Z,4.20
2018-05-10T17:39:53.700Z,4.33
2018-05-10T17:42:21.269Z,3.97
2018-05-10T17:44:48.838Z,4.50
2018-05-10T17:47:16.399Z,4.00
2018-05-10T17:49:43.966Z,3.90
2018-05-10T17:52:11.560Z,4.13
2018-05-10T17:54:39.273Z,3.67
2018-05-10T17:57:06.888Z,3.77
2018-05-10T17:59:34.439Z,5.07
2018-05-10T18:02:02.055Z,4.50
2018-05-10T18:04:29.689Z,4.00
2018-05-10T18:06:57.269Z,3.50
2018-05-10T18:09:24.832Z,4.13
2018-05-10T18:11:52.411Z,4.50
2018-05-10T18:14:19.975Z,4.20
2018-05-10T18:16:48.315Z,4.77
2018-05-10T18:19:15.873Z,4.23
2018-05-10T18:21:43.440Z,3.80
2018-05-10T18:24:11.032Z,4.13
2018-05-10T18:26:39.369Z,4.03
2018-05-10T18:29:06.933Z,3.97
2018-05-10T18:31:34.630Z,3.80
2018-05-10T18:34:02.231Z,3.90
2018-05-10T18:36:29.807Z,3.27
2018-05-10T18:38:57.354Z,3.80
2018-05-10T18:41:24.928Z,3.80
2018-05-10T18:43:52.524Z,3.37
2018-05-10T18:46:20.985Z,3.93
2018-05-10T18:48:49.282Z,3.40
2018-05-10T18:51:17.633Z,4.13
2018-05-10T18:53:45.214Z,3.60
2018-05-10T18:56:12.801Z,3.40
2018-05-10T18:58:41.247Z,3.57
2018-05-10T19:01:08.881Z,4.10
2018-05-10T19:03:36.475Z,7.27
2018-05-10T19:06:04.046Z,4.20
2018-05-10T19:08:31.630Z,3.23
2018-05-10T19:10:59.943Z,3.70
2018-05-10T19:13:27.502Z,3.37
2018-05-10T19:15:55.073Z,3.60
2018-05-10T19:18:22.650Z,3.37
2018-05-10T19:20:50.333Z,5.03
2018-05-10T19:23:18.563Z,7.00
2018-05-10T19:25:46.995Z,3.50
2018-05-10T19:28:14.537Z,3.53
2018-05-10T19:30:42.113Z,3.33
2018-05-10T19:33:10.437Z,3.53
2018-05-10T19:35:38.055Z,3.50
2018-05-10T19:38:06.377Z,3.50
2018-05-10T19:40:33.954Z,4.23
2018-05-10T19:43:01.737Z,3.43
2018-05-10T19:45:29.296Z,3.97
2018-05-10T19:47:56.904Z,3.60
2018-05-10T19:50:24.470Z,3.30
2018-05-10T19:52:52.044Z,3.20
2018-05-10T19:55:19.616Z,3.50
2018-05-10T19:57:47.183Z,2.93
2018-05-10T20:00:14.780Z,3.20
2018-05-10T20:02:42.435Z,3.07
2018-05-10T20:05:09.940Z,3.40
2018-05-10T20:07:37.551Z,2.73
2018-05-10T20:10:05.191Z,3.10
2018-05-10T20:12:32.777Z,2.73
2018-05-10T20:15:00.378Z,3.40
2018-05-10T20:17:27.961Z,2.90
2018-05-10T20:19:55.518Z,2.83
2018-05-10T20:22:23.088Z,3.07
2018-05-10T20:24:50.664Z,2.97
2018-05-10T20:27:18.217Z,3.30
2018-05-10T20:29:45.793Z,2.70
2018-05-10T20:32:13.359Z,3.10
2018-05-10T20:34:40.896Z,3.00
2018-05-10T20:37:08.472Z,3.03
2018-05-10T20:39:36.816Z,3.40
2018-05-10T20:42:04.401Z,2.83
2018-05-10T20:44:31.953Z,3.23
2018-05-10T20:46:59.559Z,3.03
2018-05-10T20:49:27.924Z,3.40
2018-05-10T20:51:55.500Z,2.97
2018-05-10T20:54:23.832Z,3.40
2018-05-10T20:56:51.416Z,3.03
2018-05-10T20:59:20.019Z,2.80
2018-05-10T21:01:48.367Z,2.87
2018-05-10T21:04:15.940Z,3.20
2018-05-10T21:06:44.278Z,3.10
2018-05-10T21:09:11.859Z,3.30
2018-05-10T21:11:39.423Z,2.93
2018-05-10T21:14:06.977Z,3.50
2018-05-10T21:16:34.589Z,3.13
2018-05-10T21:19:02.216Z,2.90
2018-05-10T21:21:30.691Z,3.50
2018-05-10T21:23:58.255Z,3.37
2018-05-10T21:26:25.812Z,3.47
2018-05-10T21:28:53.426Z,3.33
2018-05-10T21:31:20.987Z,3.27
2018-05-10T21:33:48.714Z,3.40
2018-05-10T21:36:16.399Z,3.67
2018-05-10T21:38:43.970Z,3.40
2018-05-10T21:41:11.719Z,3.60
2018-05-10T21:43:39.379Z,3.80
2018-05-10T21:46:07.722Z,4.00
2018-05-10T21:48:35.280Z,3.60
2018-05-10T21:51:02.835Z,3.87
2018-05-10T21:53:30.414Z,3.77
2018-05-10T21:55:58.747Z,4.03
2018-05-10T21:58:26.335Z,3.90
2018-05-10T22:00:53.907Z,4.10
2018-05-10T22:03:21.472Z,4.07
2018-05-10T22:05:49.825Z,4.37
2018-05-10T22:08:17.393Z,4.20
2018-05-10T22:10:45.076Z,4.50
2018-05-10T22:13:12.693Z,4.20
2018-05-10T22:15:40.255Z,4.00
2018-05-10T22:18:07.840Z,4.60
2018-05-10T22:20:35.484Z,5.00
2018-05-10T22:23:03.040Z,4.90
2018-05-10T22:25:30.611Z,4.80
2018-05-10T22:27:58.166Z,4.80
2018-05-10T22:30:25.763Z,4.80
2018-05-10T22:32:54.107Z,4.70
2018-05-10T22:35:21.714Z,4.83
2018-05-10T22:37:50.005Z,4.70
2018-05-10T22:40:17.588Z,4.77
2018-05-10T22:42:45.162Z,5.00
2018-05-10T22:45:12.741Z,5.30
2018-05-10T22:47:40.297Z,5.13
2018-05-10T22:50:07.851Z,5.00
2018-05-10T22:52:35.431Z,5.70
2018-05-10T22:55:03.007Z,5.43
2018-05-10T22:57:31.360Z,5.20
2018-05-10T22:59:58.909Z,5.43
2018-05-10T23:02:26.511Z,4.57
2018-05-10T23:04:54.828Z,5.33
2018-05-10T23:07:22.403Z,5.47
2018-05-10T23:09:49.955Z,5.40
2018-05-10T23:12:17.625Z,5.53
2018-05-10T23:14:45.107Z,5.90
2018-05-10T23:17:13.440Z,5.60
2018-05-10T23:19:41.068Z,6.00
2018-05-10T23:22:09.403Z,6.30
2018-05-10T23:24:36.991Z,6.50
2018-05-10T23:27:05.493Z,6.40
2018-05-10T23:29:33.850Z,6.30
2018-05-10T23:32:01.393Z,6.70
2018-05-10T23:34:29.013Z,6.53
2018-05-10T23:36:56.603Z,6.13
2018-05-10T23:39:24.191Z,6.80
2018-05-10T23:41:51.839Z,6.83
2018-05-10T23:44:20.178Z,7.47
2018-05-10T23:46:47.848Z,6.87
2018-05-10T23:49:15.413Z,6.73
2018-05-10T23:51:42.973Z,7.40
2018-05-10T23:54:10.613Z,7.73
2018-05-10T23:56:38.144Z,8.20
2018-05-10T23:59:06.528Z,8.60
